Time;durP1;ratioP1;P1;durP2;ratioP2;P2;SDS_P1;SDS_P2;PMS_P1;PMS_P2;Temp;Humidity;BMP_temperature;BMP_pressure;BME280_temperature;BME280_humidity;BME280_pressure;Samples;Min_cycle;Max_cycle;Signal;HPM_P1;HPM_P2
2022/05/01 00:00:17;;;;;;;;;6.50;6.00;;;;;20.58;31.65;101929.22;5058837;28;45248;-55
2022/05/01 00:02:42;;;;;;;;;11.00;7.25;;;;;20.59;31.62;101925.66;5058292;28;47265;-57
2022/05/01 00:05:08;;;;;;;;;6.75;4.75;;;;;20.57;31.74;101931.91;5058341;28;45394;-63
2022/05/01 00:07:34;;;;;;;;;7.25;6.25;;;;;20.57;31.79;101932.75;5058469;28;45433;-63
2022/05/01 00:09:59;;;;;;;;;6.50;5.25;;;;;20.55;31.99;101924.09;5058574;28;45505;-62
2022/05/01 00:12:24;;;;;;;;;6.75;6.75;;;;;20.50;31.77;101923.38;5058140;28;46193;-62
2022/05/01 00:14:50;;;;;;;;;6.75;6.00;;;;;20.52;32.07;101918.94;5058324;28;45334;-56
2022/05/01 00:17:15;;;;;;;;;9.00;7.00;;;;;20.54;31.83;101927.63;5058375;28;45591;-60
2022/05/01 00:19:40;;;;;;;;;5.50;5.50;;;;;20.52;32.07;101918.94;5058453;28;45529;-55
2022/05/01 00:22:06;;;;;;;;;4.00;3.00;;;;;20.53;31.76;101926.75;5057811;28;46176;-48
2022/05/01 00:24:32;;;;;;;;;6.75;6.00;;;;;20.50;32.02;101919.00;5073813;28;45523;-53
2022/05/01 00:26:59;;;;;;;;;7.00;5.75;;;;;20.53;31.95;101920.66;5058170;28;45454;-53
2022/05/01 00:29:24;;;;;;;;;6.50;6.00;;;;;20.52;32.22;101927.69;5058316;28;45409;-50
2022/05/01 00:31:50;;;;;;;;;7.00;7.00;;;;;20.50;31.70;101916.38;5057031;28;48167;-61
2022/05/01 00:36:59;;;;;;;;;5.25;5.25;;;;;20.50;31.86;101915.50;5057910;28;45407;-52
2022/05/01 00:39:24;;;;;;;;;8.00;6.25;;;;;20.51;31.61;101922.47;5058288;28;45374;-53
2022/05/01 00:41:50;;;;;;;;;7.75;6.50;;;;;20.49;31.84;101919.91;5073785;28;45897;-49
2022/05/01 00:44:21;;;;;;;;;6.50;6.00;;;;;20.48;32.05;101917.31;5057861;28;45395;-61
2022/05/01 00:46:49;;;;;;;;;7.75;7.75;;;;;20.46;32.29;101911.25;5057738;28;45219;-56
2022/05/01 00:49:26;;;;;;;;;7.00;5.50;;;;;20.48;31.91;101912.06;5058173;28;45339;-56
2022/05/01 00:51:54;;;;;;;;;6.50;6.00;;;;;20.48;32.21;101914.69;5058164;28;45348;-61
2022/05/01 00:54:23;;;;;;;;;5.75;3.75;;;;;20.46;31.96;101903.34;5058080;28;45231;-58
2022/05/01 00:56:51;;;;;;;;;5.50;5.50;;;;;20.47;31.72;101905.06;5057618;28;45368;-58
2022/05/01 00:59:18;;;;;;;;;5.75;4.75;;;;;20.47;32.05;101905.06;5058034;28;45493;-60
2022/05/01 01:01:45;;;;;;;;;7.50;6.25;;;;;20.44;32.16;101899.94;5057389;28;45591;-61
2022/05/01 01:04:11;;;;;;;;;5.00;5.00;;;;;20.46;32.04;101911.25;5057638;28;45859;-58
2022/05/01 01:06:38;;;;;;;;;7.75;6.50;;;;;20.43;32.00;101903.50;5057726;28;45185;-59
2022/05/01 01:09:05;;;;;;;;;5.00;4.00;;;;;20.42;32.31;101899.97;5057686;28;45501;-63
2022/05/01 01:11:30;;;;;;;;;8.00;4.25;;;;;20.45;32.10;101901.66;5057428;28;45924;-58
2022/05/01 01:13:57;;;;;;;;;7.50;4.00;;;;;20.43;32.36;101903.50;5057633;28;45718;-56
2022/05/01 01:16:23;;;;;;;;;7.00;5.75;;;;;20.40;32.45;101893.91;5057742;28;45359;-59
2022/05/01 01:18:48;;;;;;;;;5.00;5.00;;;;;20.43;32.07;101900.84;5057610;28;45449;-57
2022/05/01 01:21:14;;;;;;;;;6.50;5.00;;;;;20.43;32.56;101903.50;5057074;28;45503;-53
2022/05/01 01:23:40;;;;;;;;;5.75;5.75;;;;;20.42;31.83;101901.75;5057143;28;45391;-58
2022/05/01 01:26:07;;;;;;;;;6.00;5.00;;;;;20.41;32.40;101900.03;5057348;28;45298;-59
2022/05/01 01:28:35;;;;;;;;;8.25;5.00;;;;;20.38;32.15;101891.34;5057286;28;45608;-53
2022/05/01 01:33:51;;;;;;;;;7.00;7.00;;;;;20.39;32.11;101893.06;5056261;28;45864;-55
2022/05/01 01:36:20;;;;;;;;;4.00;4.00;;;;;20.40;32.05;101896.53;5057055;28;45304;-59
2022/05/01 01:38:45;;;;;;;;;6.75;5.50;;;;;20.36;32.39;101890.53;5056023;28;45535;-59
2022/05/01 01:41:13;;;;;;;;;4.00;4.00;;;;;20.38;31.88;101895.75;5056908;28;46067;-52
2022/05/01 01:43:42;;;;;;;;;6.00;5.00;;;;;20.37;32.14;101894.03;5056910;28;45841;-53
2022/05/01 01:46:07;;;;;;;;;6.50;4.50;;;;;20.35;32.45;101890.59;5057019;28;45308;-63
2022/05/01 01:48:32;;;;;;;;;6.75;6.50;;;;;20.35;32.47;101893.25;5056979;28;45466;-55
2022/05/01 01:51:01;;;;;;;;;5.50;5.50;;;;;20.34;32.10;101892.34;5056727;28;46351;-62
2022/05/01 01:53:28;;;;;;;;;6.00;6.00;;;;;20.34;32.09;101889.72;5056713;28;45900;-62
2022/05/01 01:55:54;;;;;;;;;6.00;6.00;;;;;20.35;32.15;101894.09;5057136;28;45370;-60
2022/05/01 01:58:20;;;;;;;;;6.00;5.50;;;;;20.35;32.50;101896.72;5057012;28;45173;-64
2022/05/01 02:00:45;;;;;;;;;5.00;5.00;;;;;20.32;32.42;101883.69;5056645;28;46130;-48
2022/05/01 02:03:11;;;;;;;;;5.00;4.75;;;;;20.33;32.14;101888.03;5056776;28;45455;-53
2022/05/01 02:05:36;;;;;;;;;5.50;5.50;;;;;20.34;32.19;101886.25;5056852;28;45299;-59
2022/05/01 02:08:05;;;;;;;;;7.25;6.00;;;;;20.32;32.51;101888.94;5056844;28;45546;-65
2022/05/01 02:10:31;;;;;;;;;6.00;6.00;;;;;20.33;32.43;101887.16;5056322;28;46061;-52
2022/05/01 02:12:56;;;;;;;;;5.00;5.00;;;;;20.32;32.23;101886.31;5056643;28;45438;-48
2022/05/01 02:15:22;;;;;;;;;6.25;6.00;;;;;20.32;32.70;101880.19;5056707;28;45321;-59
2022/05/01 02:17:51;;;;;;;;;9.00;8.00;;;;;20.32;31.98;101880.19;5054969;28;45575;-50
2022/05/01 02:20:16;;;;;;;;;4.75;4.75;;;;;20.29;32.50;101873.25;5056203;28;46478;-64
2022/05/01 02:22:43;;;;;;;;;7.00;4.00;;;;;20.29;32.45;101880.28;5056209;28;45252;-60
2022/05/01 02:25:09;;;;;;;;;6.00;5.00;;;;;20.28;32.59;101881.22;5056362;28;45440;-65
2022/05/01 02:27:36;;;;;;;;;4.50;4.50;;;;;20.26;32.56;101881.28;5056271;28;45580;-63
2022/05/01 02:30:02;;;;;;;;;4.75;4.25;;;;;20.28;32.30;101883.88;5071754;28;47461;-48
2022/05/01 02:32:27;;;;;;;;;5.00;5.00;;;;;20.27;32.69;101875.09;5056486;28;45473;-65
2022/05/01 02:34:52;;;;;;;;;8.00;5.00;;;;;20.27;32.23;101871.63;5056291;28;45291;-61
2022/05/01 02:37:18;;;;;;;;;4.00;4.00;;;;;20.27;32.22;101877.72;5056331;28;45236;-62
2022/05/01 02:39:43;;;;;;;;;7.00;6.00;;;;;20.25;32.19;101863.75;5056153;28;46168;-57
2022/05/01 02:42:08;;;;;;;;;5.50;5.50;;;;;20.22;32.39;101870.00;5056257;28;45362;-61
2022/05/01 02:44:34;;;;;;;;;4.75;4.75;;;;;20.25;32.64;101869.03;5056529;28;45295;-46
2022/05/01 02:46:59;;;;;;;;;7.25;4.25;;;;;20.23;32.67;101865.56;5060027;28;45492;-54
2022/05/01 02:49:24;;;;;;;;;9.00;7.25;;;;;20.23;32.80;101860.31;5059983;28;46962;-61
2022/05/01 02:51:52;;;;;;;;;5.00;5.00;;;;;20.22;32.68;101858.63;5059776;28;45361;-52
2022/05/01 02:54:18;;;;;;;;;6.00;5.00;;;;;20.19;32.79;101861.38;5059601;28;45490;-54
2022/05/01 02:56:44;;;;;;;;;4.50;4.50;;;;;20.18;32.30;101852.59;5059872;28;45552;-64
2022/05/01 02:59:09;;;;;;;;;5.25;5.00;;;;;20.21;32.66;101854.28;5059542;28;45397;-62
2022/05/01 03:01:38;;;;;;;;;5.00;5.00;;;;;20.20;32.54;101855.19;5059594;28;45396;-58
2022/05/01 03:04:04;;;;;;;;;5.00;5.00;;;;;20.18;32.35;101846.50;5059640;28;45239;-51
2022/05/01 03:06:30;;;;;;;;;7.25;5.50;;;;;20.19;32.50;101848.22;5060101;28;45567;-64
2022/05/01 03:08:55;;;;;;;;;6.00;6.00;;;;;20.19;32.78;101849.06;5059436;28;46695;-60
2022/05/01 03:11:20;;;;;;;;;4.75;4.75;;;;;20.19;32.76;101849.06;5059332;28;45275;-60
2022/05/01 03:13:46;;;;;;;;;6.25;5.25;;;;;20.17;32.93;101842.13;5059195;28;45230;-61
2022/05/01 03:16:11;;;;;;;;;5.00;5.00;;;;;20.16;32.35;101841.28;5059455;28;45318;-60
2022/05/01 03:24:05;;;;;;;;;6.50;4.25;;;;;20.16;32.24;101845.69;5059202;28;45452;-54
2022/05/01 03:26:30;;;;;;;;;7.75;7.75;;;;;20.15;32.79;101836.06;5059649;28;45255;-55
2022/05/01 03:28:55;;;;;;;;;6.00;5.25;;;;;20.15;32.84;101836.06;5059106;28;46094;-58
2022/05/01 03:31:21;;;;;;;;;4.00;4.00;;;;;20.15;32.48;101836.94;5059141;28;45735;-50
2022/05/01 03:33:47;;;;;;;;;7.75;7.00;;;;;20.14;32.86;101835.22;5059103;28;45303;-58
2022/05/01 03:36:13;;;;;;;;;5.75;5.75;;;;;20.14;32.67;101829.09;5059046;28;45486;-63
2022/05/01 03:38:41;;;;;;;;;6.75;5.75;;;;;20.13;32.37;101830.88;5058861;28;46568;-61
2022/05/01 03:41:09;;;;;;;;;6.50;6.00;;;;;20.14;32.88;101836.97;5058822;28;45420;-60
2022/05/01 03:43:36;;;;;;;;;7.75;5.50;;;;;20.13;32.65;101830.00;5059023;28;45206;-63
2022/05/01 03:46:05;;;;;;;;;6.25;6.00;;;;;20.11;32.78;101819.53;5059440;28;45370;-60
2022/05/01 03:48:30;;;;;;;;;6.00;5.50;;;;;20.12;32.95;101823.03;5058548;28;45444;-50
2022/05/01 03:50:56;;;;;;;;;7.25;7.25;;;;;20.12;32.43;101825.69;5058643;28;45327;-56
2022/05/01 03:53:22;;;;;;;;;7.00;6.00;;;;;20.11;32.78;101824.81;5058830;28;45419;-63
2022/05/01 03:55:48;;;;;;;;;5.25;5.00;;;;;20.09;32.86;101816.09;5058362;28;45456;-58
2022/05/01 03:58:13;;;;;;;;;6.75;6.00;;;;;20.11;32.99;101823.97;5057149;28;45947;-61
2022/05/01 04:00:39;;;;;;;;;7.00;6.00;;;;;20.11;32.45;101829.22;5058444;28;45236;-61
2022/05/01 04:03:05;;;;;;;;;7.50;5.75;;;;;20.10;32.75;101824.88;5058680;28;45374;-62
2022/05/01 04:05:33;;;;;;;;;7.25;7.00;;;;;20.10;33.03;101819.59;5058912;28;45515;-58
2022/05/01 04:07:59;;;;;;;;;6.25;6.00;;;;;20.09;32.95;101821.38;5058635;28;47202;-63
2022/05/01 04:10:24;;;;;;;;;5.25;5.25;;;;;20.07;32.78;101824.06;5058377;28;45443;-63
2022/05/01 04:12:50;;;;;;;;;7.75;6.00;;;;;20.09;32.65;101824.00;5058454;28;45374;-62
2022/05/01 04:15:15;;;;;;;;;9.25;5.50;;;;;20.08;32.49;101819.66;5058482;28;45655;-63
2022/05/01 04:17:42;;;;;;;;;8.50;5.75;;;;;20.07;32.61;101824.06;5057989;28;45364;-63
2022/05/01 04:20:12;;;;;;;;;5.00;5.00;;;;;20.08;33.04;101824.91;5058163;28;45846;-62
2022/05/01 04:22:44;;;;;;;;;8.50;7.00;;;;;20.06;32.99;101822.34;5058398;28;45260;-60
2022/05/01 04:25:23;;;;;;;;;6.50;6.25;;;;;20.06;32.96;101824.13;5058536;28;45365;-61
2022/05/01 04:27:54;;;;;;;;;6.25;6.00;;;;;20.06;33.17;101818.88;5058166;28;46277;-62
2022/05/01 04:30:20;;;;;;;;;6.25;5.25;;;;;20.06;32.64;101821.50;5073137;28;45838;-63
2022/05/01 04:32:53;;;;;;;;;9.00;6.00;;;;;20.05;32.55;101819.78;5058130;28;45241;-64
2022/05/01 04:35:31;;;;;;;;;7.25;4.50;;;;;20.06;33.24;101822.34;5058401;28;45244;-63
2022/05/01 04:38:15;;;;;;;;;8.00;5.00;;;;;20.06;33.03;101824.97;5057951;28;45337;-62
2022/05/01 04:40:43;;;;;;;;;6.75;6.25;;;;;20.06;33.00;101817.09;5057907;28;45722;-63
2022/05/01 04:43:10;;;;;;;;;11.00;7.50;;;;;20.07;32.92;101817.94;5057990;28;45414;-62
2022/05/01 04:45:37;;;;;;;;;13.75;8.00;;;;;20.07;33.19;101823.19;5057430;28;45430;-58
2022/05/01 04:48:05;;;;;;;;;12.75;8.00;;;;;20.08;32.90;101828.41;5073620;28;47186;-61
2022/05/01 04:50:31;;;;;;;;;7.50;7.00;;;;;20.07;32.64;101823.19;5057905;28;45296;-60
2022/05/01 04:53:00;;;;;;;;;8.25;6.75;;;;;20.08;32.87;101825.78;5057886;28;45378;-56
2022/05/01 04:55:25;;;;;;;;;8.00;6.50;;;;;20.08;32.74;101822.28;5057958;28;45660;-64
2022/05/01 04:57:51;;;;;;;;;12.00;8.00;;;;;20.08;32.87;101825.78;5057434;28;46089;-63
2022/05/01 05:00:19;;;;;;;;;9.50;8.75;;;;;20.08;33.24;101828.41;5057532;28;45338;-62
2022/05/01 05:02:48;;;;;;;;;10.25;7.75;;;;;20.07;33.03;101829.31;5057638;28;45327;-63
2022/05/01 05:05:13;;;;;;;;;8.00;8.00;;;;;20.08;33.18;101828.41;5057657;28;45394;-54
2022/05/01 05:07:39;;;;;;;;;9.00;6.50;;;;;20.07;33.01;101834.59;5056211;28;46878;-53
2022/05/01 05:10:07;;;;;;;;;11.00;9.00;;;;;20.10;32.84;101832.75;5057758;28;45323;-62
2022/05/01 05:12:33;;;;;;;;;10.75;9.00;;;;;20.10;32.77;101835.41;5057644;28;45460;-62
2022/05/01 05:15:00;;;;;;;;;7.25;7.25;;;;;20.08;33.24;101836.31;5057035;28;45231;-63
2022/05/01 05:17:27;;;;;;;;;9.50;7.00;;;;;20.10;32.88;101844.13;5057059;28;46090;-62
2022/05/01 05:19:54;;;;;;;;;7.75;6.50;;;;;20.10;33.37;101851.19;5057319;28;46230;-63
2022/05/01 05:22:19;;;;;;;;;12.00;8.25;;;;;20.09;32.89;101847.69;5057185;28;45370;-63
2022/05/01 05:24:45;;;;;;;;;11.00;7.00;;;;;20.10;33.18;101851.19;5057291;28;45469;-59
2022/05/01 05:27:10;;;;;;;;;8.25;7.00;;;;;20.10;33.16;101852.03;5056862;28;46292;-49
2022/05/01 05:29:36;;;;;;;;;6.25;6.00;;;;;20.11;33.25;101852.91;5057402;28;45327;-50
2022/05/01 05:32:01;;;;;;;;;9.25;6.25;;;;;20.10;33.38;101852.03;5057290;28;45336;-60
2022/05/01 05:34:27;;;;;;;;;7.00;7.00;;;;;20.08;32.90;101851.22;5057275;28;46201;-60
2022/05/01 05:36:53;;;;;;;;;9.25;7.50;;;;;20.10;33.46;101852.03;5056851;28;45814;-63
2022/05/01 05:39:18;;;;;;;;;8.75;7.25;;;;;20.08;32.98;101856.50;5056865;28;45263;-61
2022/05/01 05:41:44;;;;;;;;;8.50;7.00;;;;;20.10;32.77;101849.41;5057160;28;45350;-61
2022/05/01 05:44:10;;;;;;;;;3.00;3.00;;;;;20.10;33.15;101853.81;5072836;28;45360;-60
2022/05/01 05:46:36;;;;;;;;;7.00;6.00;;;;;20.10;33.05;101853.81;5056662;28;45378;-53
2022/05/01 05:49:02;;;;;;;;;8.25;8.25;;;;;20.09;32.79;101858.22;5056729;28;45359;-63
2022/05/01 05:51:27;;;;;;;;;8.00;7.75;;;;;20.11;33.30;101845.00;5056803;28;45469;-62
2022/05/01 05:53:53;;;;;;;;;7.50;6.75;;;;;20.03;33.26;101837.41;5056909;28;45628;-62
2022/05/01 05:56:19;;;;;;;;;8.00;6.50;;;;;20.11;33.36;101850.28;5056662;28;46446;-60
2022/05/01 05:58:45;;;;;;;;;9.50;7.25;;;;;20.10;33.30;101849.41;5056732;28;45407;-57
2022/05/01 06:01:10;;;;;;;;;9.50;6.50;;;;;20.12;32.97;101846.72;5056727;28;45408;-59
2022/05/01 06:03:36;;;;;;;;;9.00;6.00;;;;;20.11;33.29;101845.00;5057198;28;45415;-48
2022/05/01 06:06:03;;;;;;;;;4.00;4.00;;;;;20.11;33.33;101847.66;5056416;28;45399;-61
2022/05/01 06:08:28;;;;;;;;;6.75;5.75;;;;;20.11;32.93;101839.75;5056667;28;45693;-63
2022/05/01 06:10:54;;;;;;;;;24.75;16.00;;;;;20.12;32.94;101841.47;5072294;28;45282;-52
2022/05/01 06:13:19;;;;;;;;;37.25;16.00;;;;;20.11;33.09;101842.38;5056679;28;45373;-63
2022/05/01 06:15:44;;;;;;;;;24.25;12.00;;;;;20.13;33.29;101843.16;5056344;28;45345;-62
2022/05/01 06:18:12;;;;;;;;;25.00;14.75;;;;;20.12;33.14;101852.84;5056288;28;45330;-61
2022/05/01 06:20:38;;;;;;;;;19.25;15.25;;;;;20.15;33.42;101857.13;5055568;28;45398;-63
2022/05/01 06:23:03;;;;;;;;;20.75;13.75;;;;;20.12;33.04;101846.72;5056646;28;45325;-57
2022/05/01 06:25:29;;;;;;;;;17.50;10.50;;;;;20.15;33.15;101858.00;5056295;28;46914;-55
2022/05/01 06:27:54;;;;;;;;;22.25;10.50;;;;;20.15;33.47;101862.38;5056585;28;45416;-55
2022/05/01 06:30:20;;;;;;;;;20.00;12.33;;;;;20.14;33.42;101853.66;5056398;28;45422;-53
2022/05/01 06:32:45;;;;;;;;;15.50;9.50;;;;;20.14;33.24;101861.53;5056638;28;45591;-63
2022/05/01 06:35:11;;;;;;;;;16.25;9.75;;;;;20.15;33.08;101855.38;5054807;28;46110;-61
2022/05/01 06:37:38;;;;;;;;;15.25;9.25;;;;;20.14;33.42;101856.28;5056304;28;45451;-61
2022/05/01 06:40:05;;;;;;;;;24.25;13.75;;;;;20.14;32.83;101856.28;5056243;28;45223;-62
2022/05/01 06:42:32;;;;;;;;;15.50;13.50;;;;;20.13;32.96;101864.22;5055071;28;45340;-61
2022/05/01 06:44:58;;;;;;;;;21.00;13.00;;;;;20.14;33.11;101864.19;5055810;28;46188;-55
2022/05/01 06:47:23;;;;;;;;;19.25;11.50;;;;;20.14;33.41;101873.81;5055713;28;45413;-60
2022/05/01 06:49:49;;;;;;;;;16.75;11.50;;;;;20.13;33.13;101870.34;5056105;28;45349;-62
2022/05/01 06:52:24;;;;;;;;;21.00;12.25;;;;;20.13;32.65;101880.00;5056229;28;45504;-61
2022/05/01 06:54:53;;;;;;;;;17.00;11.75;;;;;20.13;33.13;101877.38;5055822;28;46986;-62
2022/05/01 06:57:18;;;;;;;;;14.75;12.25;;;;;20.11;32.78;101872.19;5055807;28;45818;-48
2022/05/01 06:59:44;;;;;;;;;15.00;12.75;;;;;20.11;32.63;101873.97;5054977;28;45448;-59
2022/05/01 07:02:09;;;;;;;;;16.25;12.50;;;;;20.11;32.88;101877.44;5055912;28;45587;-59
2022/05/01 07:04:34;;;;;;;;;23.25;15.00;;;;;20.11;33.22;101873.97;5071339;28;47357;-60
2022/05/01 07:07:00;;;;;;;;;14.50;10.50;;;;;20.06;32.74;101869.72;5054436;28;46345;-52
2022/05/01 07:09:25;;;;;;;;;13.50;11.00;;;;;20.10;32.98;101869.63;5055863;28;45235;-52
2022/05/01 07:11:51;;;;;;;;;14.00;11.25;;;;;20.08;32.72;101870.53;5055956;28;45215;-54
2022/05/01 07:14:16;;;;;;;;;16.75;14.25;;;;;20.07;32.69;101863.53;5055592;28;45994;-51
2022/05/01 07:16:42;;;;;;;;;10.75;9.50;;;;;20.10;32.72;101870.47;5055369;28;45484;-49
2022/05/01 07:19:08;;;;;;;;;11.00;10.25;;;;;20.10;32.43;101864.34;5056269;28;45622;-53
2022/05/01 07:21:33;;;;;;;;;14.00;11.75;;;;;20.08;32.63;101867.91;5055865;28;45463;-59
2022/05/01 07:23:58;;;;;;;;;14.00;10.50;;;;;20.07;32.90;101858.28;5055498;28;45325;-62
2022/05/01 07:26:25;;;;;;;;;9.75;8.75;;;;;20.08;32.45;101865.25;5055447;28;45355;-51
2022/05/01 07:28:51;;;;;;;;;11.75;10.50;;;;;20.08;32.67;101861.75;5055509;28;45434;-50
2022/05/01 07:31:16;;;;;;;;;28.75;21.75;;;;;20.08;32.11;101860.00;5055732;28;45300;-50
2022/05/01 07:33:41;;;;;;;;;16.75;12.50;;;;;19.99;32.28;101862.09;5057874;28;46225;-58
2022/05/01 07:36:07;;;;;;;;;28.00;22.67;;;;;19.87;32.05;101869.53;5058764;28;46238;-57
2022/05/01 07:38:32;;;;;;;;;28.25;25.00;;;;;19.73;32.15;101864.72;5058873;28;45315;-62
2022/05/01 07:40:57;;;;;;;;;22.75;20.00;;;;;19.60;32.29;101866.06;5059153;28;45424;-59
2022/05/01 07:43:23;;;;;;;;;25.00;21.50;;;;;19.50;32.41;101872.56;5058698;28;45466;-66
2022/05/01 07:45:48;;;;;;;;;24.25;20.75;;;;;19.39;32.85;101865.91;5058906;28;45405;-60
2022/05/01 07:48:14;;;;;;;;;22.75;20.25;;;;;19.31;32.74;101865.31;5058832;28;45507;-50
2022/05/01 07:50:39;;;;;;;;;18.25;16.50;;;;;19.23;32.39;101870.81;5058045;28;45251;-52
2022/05/01 07:53:05;;;;;;;;;24.00;20.50;;;;;19.16;32.52;101862.28;5058533;28;46609;-65
2022/05/01 07:55:30;;;;;;;;;25.25;21.75;;;;;19.10;32.61;101857.25;5058425;28;45263;-65
2022/05/01 07:57:55;;;;;;;;;20.00;19.00;;;;;19.04;32.86;101857.41;5058617;28;45254;-60
2022/05/01 08:00:21;;;;;;;;;21.25;19.75;;;;;18.98;33.24;101853.22;5058594;28;45307;-59
2022/05/01 08:05:30;;;;;;;;;23.25;21.50;;;;;18.89;32.84;101850.88;5058452;28;45740;-48
2022/05/01 08:07:57;;;;;;;;;18.67;17.33;;;;;18.83;32.99;101849.31;5058549;28;45227;-60
2022/05/01 08:10:22;;;;;;;;;21.75;21.50;;;;;18.77;32.95;101836.38;5057421;28;45520;-56
2022/05/01 08:12:48;;;;;;;;;23.25;20.50;;;;;18.76;32.86;101845.16;5074029;28;46559;-66
2022/05/01 08:15:18;;;;;;;;;20.75;20.25;;;;;18.76;33.12;101847.78;5058331;28;45334;-60
2022/05/01 08:17:47;;;;;;;;;22.00;16.00;;;;;18.72;32.83;101832.19;5058692;28;45407;-48
2022/05/01 08:23:07;;;;;;;;;23.00;20.25;;;;;18.61;32.86;101833.38;5058108;28;45220;-58
2022/05/01 08:25:34;;;;;;;;;24.75;16.50;;;;;18.61;32.69;101837.75;5058110;28;45331;-47
2022/05/01 08:28:00;;;;;;;;;22.25;19.50;;;;;18.58;32.61;101838.72;5058163;28;45444;-58
2022/05/01 08:30:25;;;;;;;;;21.25;20.00;;;;;18.56;32.57;101829.19;5058359;28;45785;-55
2022/05/01 08:32:51;;;;;;;;;28.75;20.75;;;;;18.52;32.65;101831.88;5057547;28;45587;-53
2022/05/01 08:35:20;;;;;;;;;22.00;19.50;;;;;18.49;32.63;101829.34;5058107;28;45272;-52
2022/05/01 08:37:46;;;;;;;;;23.25;19.00;;;;;18.46;32.88;101825.97;5058114;28;45355;-53
2022/05/01 08:40:11;;;;;;;;;21.00;17.25;;;;;18.45;32.99;101830.38;5073999;28;45335;-57
2022/05/01 08:42:38;;;;;;;;;22.50;21.25;;;;;18.46;32.60;101824.22;5057685;28;46846;-61
2022/05/01 08:45:08;;;;;;;;;20.75;17.50;;;;;18.46;32.84;101818.97;5057660;28;45346;-62
2022/05/01 08:47:35;;;;;;;;;21.00;19.75;;;;;18.49;32.87;101820.63;5057847;28;45376;-54
2022/05/01 08:50:02;;;;;;;;;20.75;19.00;;;;;18.50;32.82;101825.81;5058025;28;45429;-66
2022/05/01 08:52:29;;;;;;;;;19.50;19.25;;;;;18.52;32.69;101828.41;5057534;28;46352;-66
2022/05/01 08:54:56;;;;;;;;;22.00;20.75;;;;;18.53;32.50;101824.84;5057653;28;45921;-63
2022/05/01 08:57:21;;;;;;;;;21.50;18.00;;;;;18.54;32.95;101824.84;5057772;28;45373;-59
2022/05/01 08:59:52;;;;;;;;;18.75;15.50;;;;;18.54;32.81;101822.22;5058126;28;45295;-56
2022/05/01 09:02:18;;;;;;;;;25.50;17.00;;;;;18.53;32.83;101812.59;5057368;28;47040;-58
2022/05/01 09:04:44;;;;;;;;;23.50;17.50;;;;;18.56;33.02;101814.28;5057750;28;45344;-51
2022/05/01 09:07:10;;;;;;;;;23.75;19.00;;;;;18.58;32.67;101822.09;5057619;28;45424;-64
2022/05/01 09:09:35;;;;;;;;;25.25;18.75;;;;;18.60;32.65;101820.28;5057610;28;45628;-65
2022/05/01 09:14:45;;;;;;;;;22.75;21.00;;;;;18.62;32.86;101813.22;5057514;28;45950;-60
2022/05/01 09:17:13;;;;;;;;;21.25;18.00;;;;;18.60;32.82;101805.41;5072878;28;45245;-67
2022/05/01 09:19:40;;;;;;;;;18.00;16.50;;;;;18.64;32.65;101811.41;5057473;28;45540;-61
2022/05/01 09:22:06;;;;;;;;;18.75;18.00;;;;;18.64;32.69;101812.25;5057206;28;46190;-49
2022/05/01 09:24:32;;;;;;;;;21.75;18.25;;;;;18.65;32.66;101813.13;5056996;28;45391;-69
2022/05/01 09:26:58;;;;;;;;;17.00;15.75;;;;;18.65;32.53;101813.97;5057274;28;45376;-60
2022/05/01 09:29:26;;;;;;;;;23.00;21.25;;;;;18.67;32.34;101806.06;5057235;28;45346;-65
2022/05/01 09:31:55;;;;;;;;;18.25;17.50;;;;;18.67;32.24;101803.44;5057150;28;46190;-54
2022/05/01 09:34:21;;;;;;;;;23.00;19.25;;;;;18.67;32.55;101800.81;5056931;28;45339;-51
2022/05/01 09:36:47;;;;;;;;;19.00;16.75;;;;;18.66;32.43;101805.19;5057473;28;45341;-68
2022/05/01 09:39:24;;;;;;;;;21.75;18.00;;;;;18.68;32.14;101810.41;5057193;28;45219;-69
2022/05/01 09:41:50;;;;;;;;;18.50;17.50;;;;;18.68;32.65;101805.16;5056813;28;45396;-58
2022/05/01 09:44:18;;;;;;;;;21.75;20.50;;;;;18.67;32.22;101790.31;5057041;28;45870;-63
2022/05/01 09:46:45;;;;;;;;;24.00;20.25;;;;;18.67;32.00;101785.91;5057245;28;45899;-51
2022/05/01 09:49:13;;;;;;;;;19.50;19.00;;;;;18.68;32.51;101784.16;5057172;28;45462;-67
2022/05/01 09:51:46;;;;;;;;;14.75;14.25;;;;;18.70;32.16;101790.19;5056731;28;46072;-66
2022/05/01 09:54:18;;;;;;;;;22.50;17.25;;;;;18.74;32.26;101783.94;5056288;28;45188;-63
2022/05/01 09:56:54;;;;;;;;;18.50;16.75;;;;;18.77;32.05;101788.22;5056824;28;45363;-62
2022/05/01 09:59:21;;;;;;;;;21.00;15.75;;;;;18.78;32.10;101793.44;5056097;28;45340;-53
2022/05/01 10:02:03;;;;;;;;;19.25;17.00;;;;;18.81;31.88;101787.22;5055415;28;47078;-67
2022/05/01 10:04:30;;;;;;;;;17.50;15.75;;;;;18.80;31.83;101775.84;5056490;28;45374;-66
2022/05/01 10:06:57;;;;;;;;;15.50;15.50;;;;;18.80;31.71;101775.84;5056750;28;45286;-69
2022/05/01 10:09:24;;;;;;;;;18.50;17.00;;;;;18.82;31.67;101775.81;5056854;28;45259;-49
2022/05/01 10:11:58;;;;;;;;;17.50;15.50;;;;;18.82;31.72;101781.91;5056633;28;46392;-54
2022/05/01 10:14:24;;;;;;;;;17.00;15.75;;;;;18.77;31.43;101756.72;5056501;28;46102;-60
2022/05/01 10:16:51;;;;;;;;;23.75;19.50;;;;;18.84;31.67;101777.47;5056880;28;45389;-51
2022/05/01 10:19:17;;;;;;;;;18.75;15.50;;;;;18.84;31.42;101774.00;5057000;28;45297;-64
2022/05/01 10:21:47;;;;;;;;;15.75;15.75;;;;;18.85;31.30;101779.19;5056339;28;47165;-64
2022/05/01 10:24:14;;;;;;;;;18.50;16.50;;;;;18.84;31.53;101766.97;5056122;28;45831;-63
2022/05/01 10:26:51;;;;;;;;;18.50;17.00;;;;;18.84;31.35;101763.50;5056366;28;45432;-63
2022/05/01 10:29:37;;;;;;;;;17.75;16.25;;;;;18.78;31.10;101756.69;5056730;28;45427;-47
2022/05/01 10:32:47;;;;;;;;;17.00;14.25;;;;;18.81;31.10;101751.31;5054171;28;47208;-67
2022/05/01 10:35:51;;;;;;;;;15.50;15.50;;;;;18.82;31.28;101750.41;5051766;28;45872;-58
2022/05/01 10:38:41;;;;;;;;;19.25;18.00;;;;;18.83;31.09;101740.78;5056169;28;45388;-54
2022/05/01 10:41:08;;;;;;;;;21.25;15.75;;;;;18.82;31.15;101742.50;5056103;28;45358;-70
2022/05/01 10:43:36;;;;;;;;;18.75;16.00;;;;;18.83;31.08;101746.03;5055360;28;45405;-53
2022/05/01 10:46:22;;;;;;;;;18.25;17.50;;;;;18.85;31.19;101737.16;5055297;28;46348;-57
2022/05/01 10:48:48;;;;;;;;;15.75;15.50;;;;;18.84;31.16;101735.44;5002113;28;45741;-54
2022/05/01 10:51:36;;;;;;;;;17.25;15.00;;;;;18.87;30.86;101733.63;5035593;28;45547;-47
2022/05/01 10:54:10;;;;;;;;;17.25;15.00;;;;;18.88;31.09;101716.97;5035095;28;46921;-59
2022/05/01 10:56:41;;;;;;;;;19.00;15.50;;;;;18.88;31.02;101719.59;5035473;28;45995;-57
2022/05/01 10:59:38;;;;;;;;;16.75;13.50;;;;;18.90;30.79;101712.53;5034507;28;45271;-48
2022/05/01 11:02:22;;;;;;;;;16.25;14.25;;;;;18.93;30.97;101712.41;5035748;28;45456;-54
2022/05/01 11:04:48;;;;;;;;;17.50;16.25;;;;;18.93;30.99;101708.06;5035187;28;46549;-51
2022/05/01 11:07:15;;;;;;;;;15.25;14.50;;;;;18.95;30.73;101719.38;5038289;28;45839;-51
2022/05/01 11:09:45;;;;;;;;;18.25;16.25;;;;;18.97;30.78;101719.31;5039276;28;45410;-51
2022/05/01 11:12:13;;;;;;;;;20.50;15.00;;;;;18.96;30.82;101702.66;5039277;28;45474;-47
2022/05/01 11:14:40;;;;;;;;;16.25;14.75;;;;;18.98;30.76;101702.63;5038406;28;45574;-48
2022/05/01 11:17:07;;;;;;;;;17.50;14.50;;;;;19.02;30.70;101701.59;5038888;28;45383;-53
2022/05/01 11:19:52;;;;;;;;;19.00;15.50;;;;;19.04;30.76;101693.69;5038956;28;45437;-54
2022/05/01 11:22:27;;;;;;;;;16.00;13.75;;;;;19.04;30.79;101686.66;5039269;28;45553;-51
2022/05/01 11:24:52;;;;;;;;;13.25;12.50;;;;;19.05;30.57;101696.25;5039034;28;45395;-54
2022/05/01 11:27:18;;;;;;;;;15.00;14.00;;;;;19.05;30.41;101684.88;5039178;28;45334;-56
2022/05/01 11:30:30;;;;;;;;;15.50;15.50;;;;;19.05;30.71;101691.00;5039033;28;45401;-56
2022/05/01 11:33:14;;;;;;;;;14.50;13.25;;;;;19.06;30.21;101679.56;4997123;28;45506;-56
2022/05/01 11:36:04;;;;;;;;;12.25;12.25;;;;;19.04;30.25;101678.75;4996383;28;47491;-57
2022/05/01 11:38:33;;;;;;;;;14.75;11.75;;;;;19.04;30.41;101676.13;5023212;28;45973;-56